Rogers Park, Illinois
Current Conditions -  °F | °C
As of 3:15 AM on Saturday 22 Nov 2014 (Local Time) from KORD Reporting Station
Light Rain Light Rain  
Wind Chill: 24°   Ceiling: 800
Heat Index: 33°   Visibility: 5mi
Dew Point: 30°   Wind: 12mph
Humidity: 89%   Direction: 200°SSW
Pressure: 30.08"   Gusts: 20mph
Location:  41.991°N, 87.6654°W
Report Text: KORD 220915Z 20010G17KT 5SM -RA BR BKN008 OVC013 01/M01 A3008 RMK AO2 P0000 T00061011
Loading
Personal Weather Stations






























Interactive Weather Map New forecast layout! Learn more

10-Day Weather Forecast

Advertisements
Track Severe Weather on mobile